createdAt,value
2018-04-12T00:00:57.298Z,12.67
2018-04-12T00:01:57.294Z,12.66
2018-04-12T00:02:57.297Z,12.66
2018-04-12T00:03:57.298Z,12.63
2018-04-12T00:04:57.303Z,12.59
2018-04-12T00:05:57.309Z,12.63
2018-04-12T00:06:57.310Z,12.56
2018-04-12T00:07:57.317Z,12.62
2018-04-12T00:08:57.314Z,12.57
2018-04-12T00:09:57.322Z,12.57
2018-04-12T00:10:57.318Z,12.56
2018-04-12T00:11:57.324Z,12.59
2018-04-12T00:12:57.327Z,12.48
2018-04-12T00:13:57.331Z,12.56
2018-04-12T00:14:57.331Z,12.52
2018-04-12T00:15:57.338Z,12.46
2018-04-12T00:16:57.336Z,12.48
2018-04-12T00:17:57.404Z,12.57
2018-04-12T00:18:57.409Z,12.52
2018-04-12T00:19:57.343Z,12.44
2018-04-12T00:20:57.350Z,12.45
2018-04-12T00:21:57.356Z,12.41
2018-04-12T00:22:57.352Z,12.41
2018-04-12T00:23:57.356Z,12.46
2018-04-12T00:24:57.417Z,12.34
2018-04-12T00:25:57.361Z,12.37
2018-04-12T00:26:57.362Z,12.33
2018-04-12T00:27:57.366Z,12.39
2018-04-12T00:28:57.367Z,12.33
2018-04-12T00:29:57.371Z,12.38
2018-04-12T00:30:57.373Z,12.34
2018-04-12T00:31:57.380Z,12.38
2018-04-12T00:32:57.380Z,12.29
2018-04-12T00:33:57.382Z,12.33
2018-04-12T00:34:57.384Z,12.24
2018-04-12T00:35:57.391Z,12.24
2018-04-12T00:36:57.393Z,12.16
2018-04-12T00:37:57.394Z,12.19
2018-04-12T00:38:57.398Z,12.15
2018-04-12T00:39:57.403Z,12.13
2018-04-12T00:40:57.408Z,12.12
2018-04-12T00:41:57.408Z,12.15
2018-04-12T00:42:57.420Z,12.11
2018-04-12T00:43:57.412Z,12.21
2018-04-12T00:44:57.416Z,12.06
2018-04-12T00:45:57.422Z,12.09
2018-04-12T00:46:57.417Z,12.19
2018-04-12T00:47:57.420Z,12.12
2018-04-12T00:48:57.423Z,12.16
2018-04-12T00:49:57.426Z,12.09
2018-04-12T00:50:57.432Z,12.11
2018-04-12T00:51:57.501Z,12.13
2018-04-12T00:52:57.433Z,12.02
2018-04-12T00:53:57.435Z,12.04
2018-04-12T00:54:57.439Z,12.09
2018-04-12T00:55:57.442Z,12.05
2018-04-12T00:56:57.444Z,12.06
2018-04-12T00:57:57.453Z,12.06
2018-04-12T00:58:57.451Z,12.04
2018-04-12T00:59:57.454Z,12.04
2018-04-12T01:00:57.456Z,12.06
2018-04-12T01:01:57.461Z,12.05
2018-04-12T01:02:57.465Z,12.06
2018-04-12T01:03:57.463Z,12.06
2018-04-12T01:04:57.471Z,12.01
2018-04-12T01:05:57.475Z,11.94
2018-04-12T01:06:57.471Z,12.04
2018-04-12T01:07:57.480Z,11.94
2018-04-12T01:08:57.477Z,11.99
2018-04-12T01:09:57.498Z,12.01
2018-04-12T01:10:57.481Z,12.01
2018-04-12T01:11:57.484Z,11.94
2018-04-12T01:12:57.488Z,11.96
2018-04-12T01:13:57.489Z,11.94
2018-04-12T01:14:57.492Z,11.93
2018-04-12T01:15:57.494Z,11.87
2018-04-12T01:16:57.497Z,11.96
2018-04-12T01:17:57.499Z,11.94
2018-04-12T01:18:57.503Z,11.90
2018-04-12T01:19:57.509Z,11.85
2018-04-12T01:20:57.510Z,11.80
2018-04-12T01:21:57.511Z,11.82
2018-04-12T01:22:57.511Z,11.78
2018-04-12T01:23:57.517Z,11.77
2018-04-12T01:24:57.521Z,11.86
2018-04-12T01:25:57.523Z,11.75
2018-04-12T01:26:57.531Z,11.71
2018-04-12T01:27:57.531Z,11.78
2018-04-12T01:28:57.547Z,11.74
2018-04-12T01:29:57.531Z,11.77
2018-04-12T01:30:57.544Z,11.82
2018-04-12T01:31:57.535Z,11.89
2018-04-12T01:32:57.540Z,11.85
2018-04-12T01:33:57.542Z,11.80
2018-04-12T01:34:57.544Z,11.74
2018-04-12T01:35:57.553Z,11.80
2018-04-12T01:36:57.550Z,11.82
2018-04-12T01:37:57.555Z,11.72
2018-04-12T01:38:57.557Z,11.83
2018-04-12T01:39:57.557Z,11.77
2018-04-12T01:40:57.559Z,11.72
2018-04-12T01:41:57.564Z,11.74
2018-04-12T01:42:57.564Z,11.74
2018-04-12T01:43:57.566Z,11.74
2018-04-12T01:44:57.572Z,11.80
2018-04-12T01:45:57.577Z,11.77
2018-04-12T01:46:57.573Z,11.77
2018-04-12T01:47:57.577Z,11.70
2018-04-12T01:48:57.586Z,11.80
2018-04-12T01:49:57.588Z,11.75
2018-04-12T01:50:57.600Z,11.72
2018-04-12T01:51:57.589Z,11.72
2018-04-12T01:52:57.589Z,11.70
2018-04-12T01:53:57.591Z,11.65
2018-04-12T01:54:57.594Z,11.68
2018-04-12T01:55:57.596Z,11.64
2018-04-12T01:56:57.599Z,11.59
2018-04-12T01:57:57.604Z,11.65
2018-04-12T01:58:59.788Z,11.67
2018-04-12T02:00:00.350Z,11.64
2018-04-12T02:00:59.021Z,11.61
2018-04-12T02:02:00.789Z,11.64
2018-04-12T02:02:59.706Z,11.65
2018-04-12T02:03:57.618Z,11.67
2018-04-12T02:04:57.625Z,11.67
2018-04-12T02:05:57.625Z,11.57
2018-04-12T02:06:57.625Z,11.61
2018-04-12T02:07:57.626Z,11.54
2018-04-12T02:08:57.632Z,11.54
2018-04-12T02:09:57.633Z,11.46
2018-04-12T02:10:57.635Z,11.47
2018-04-12T02:11:57.650Z,11.47
2018-04-12T02:12:57.643Z,11.47
2018-04-12T02:13:57.696Z,11.49
2018-04-12T02:14:57.652Z,11.38
2018-04-12T02:15:57.648Z,11.39
2018-04-12T02:16:57.650Z,11.41
2018-04-12T02:17:57.664Z,11.43
2018-04-12T02:18:57.656Z,11.46
2018-04-12T02:19:57.658Z,11.43
2018-04-12T02:20:57.661Z,11.43
2018-04-12T02:21:57.665Z,11.41
2018-04-12T02:22:57.665Z,11.46
2018-04-12T02:23:57.670Z,11.41
2018-04-12T02:24:57.671Z,11.44
2018-04-12T02:25:57.675Z,11.47
2018-04-12T02:26:57.675Z,11.38
2018-04-12T02:27:57.680Z,11.46
2018-04-12T02:28:57.688Z,11.46
2018-04-12T02:29:57.684Z,11.46
2018-04-12T02:30:57.686Z,11.46
2018-04-12T02:31:57.688Z,11.44
2018-04-12T02:32:57.694Z,11.46
2018-04-12T02:33:57.695Z,11.39
2018-04-12T02:34:57.698Z,11.41
2018-04-12T02:35:57.704Z,11.46
2018-04-12T02:36:57.751Z,11.49
2018-04-12T02:37:57.755Z,11.39
2018-04-12T02:38:57.713Z,11.39
2018-04-12T02:39:57.708Z,11.32
2018-04-12T02:40:57.712Z,11.29
2018-04-12T02:41:57.780Z,11.29
2018-04-12T02:42:57.715Z,11.31
2018-04-12T02:43:57.720Z,11.35
2018-04-12T02:44:57.721Z,11.25
2018-04-12T02:45:57.725Z,11.20
2018-04-12T02:46:57.848Z,11.20
2018-04-12T02:47:57.729Z,11.14
2018-04-12T02:48:57.733Z,11.14
2018-04-12T02:49:57.772Z,11.24
2018-04-12T02:50:57.735Z,11.10
2018-04-12T02:51:57.736Z,11.14
2018-04-12T02:52:57.737Z,11.16
2018-04-12T02:53:57.742Z,11.25
2018-04-12T02:54:57.743Z,11.19
2018-04-12T02:55:57.750Z,11.21
2018-04-12T02:56:57.751Z,11.16
2018-04-12T02:57:57.758Z,11.16
2018-04-12T02:58:57.760Z,11.14
2018-04-12T02:59:57.759Z,11.14
2018-04-12T03:00:57.765Z,11.16
2018-04-12T03:01:57.777Z,11.09
2018-04-12T03:02:57.760Z,11.20
2018-04-12T03:03:57.767Z,11.10
2018-04-12T03:04:57.769Z,11.03
2018-04-12T03:05:57.776Z,11.13
2018-04-12T03:06:57.768Z,11.07
2018-04-12T03:07:57.770Z,11.13
2018-04-12T03:08:57.776Z,11.09
2018-04-12T03:09:57.777Z,11.07
2018-04-12T03:10:57.787Z,10.99
2018-04-12T03:11:57.783Z,11.01
2018-04-12T03:12:57.806Z,10.99
2018-04-12T03:13:57.797Z,11.03
2018-04-12T03:14:57.793Z,11.07
2018-04-12T03:15:57.792Z,11.02
2018-04-12T03:16:57.801Z,10.98
2018-04-12T03:17:57.799Z,10.89
2018-04-12T03:18:57.805Z,10.84
2018-04-12T03:19:57.803Z,10.84
2018-04-12T03:20:57.805Z,10.81
2018-04-12T03:21:57.808Z,10.86
2018-04-12T03:22:57.814Z,10.91
2018-04-12T03:23:57.813Z,10.88
2018-04-12T03:24:57.818Z,10.83
2018-04-12T03:25:57.825Z,10.88
2018-04-12T03:26:57.819Z,10.83
2018-04-12T03:27:57.821Z,10.84
2018-04-12T03:28:57.830Z,10.99
2018-04-12T03:29:57.827Z,10.98
2018-04-12T03:30:57.833Z,10.98
2018-04-12T03:31:57.830Z,10.94
2018-04-12T03:32:57.835Z,10.95
2018-04-12T03:33:57.835Z,10.96
2018-04-12T03:34:57.842Z,10.92
2018-04-12T03:35:57.848Z,10.89
2018-04-12T03:36:57.840Z,10.84
2018-04-12T03:37:57.847Z,10.83
2018-04-12T03:38:57.846Z,10.86
2018-04-12T03:39:57.850Z,10.81
2018-04-12T03:40:57.860Z,10.83
2018-04-12T03:41:57.863Z,10.78
2018-04-12T03:42:58.728Z,10.86
2018-04-12T03:43:57.869Z,10.78
2018-04-12T03:44:57.875Z,10.76
2018-04-12T03:45:57.894Z,10.76
2018-04-12T03:46:57.868Z,10.83
2018-04-12T03:47:57.866Z,10.76
2018-04-12T03:48:57.890Z,10.81
2018-04-12T03:49:57.876Z,10.73
2018-04-12T03:50:57.875Z,10.81
2018-04-12T03:51:57.880Z,10.77
2018-04-12T03:52:57.884Z,10.73
2018-04-12T03:53:57.885Z,10.65
2018-04-12T03:54:57.892Z,10.66
2018-04-12T03:55:57.890Z,10.59
2018-04-12T03:56:57.891Z,10.63
2018-04-12T03:57:57.900Z,10.59
2018-04-12T03:58:57.891Z,10.58
2018-04-12T03:59:57.899Z,10.62
2018-04-12T04:00:57.903Z,10.68
2018-04-12T04:01:57.900Z,10.71
2018-04-12T04:02:57.916Z,10.73
2018-04-12T04:03:57.909Z,10.62
2018-04-12T04:04:57.944Z,10.66
2018-04-12T04:05:57.920Z,10.70
2018-04-12T04:06:57.928Z,10.73
2018-04-12T04:07:57.917Z,10.65
2018-04-12T04:08:57.920Z,10.63
2018-04-12T04:09:57.930Z,10.70
2018-04-12T04:10:57.935Z,10.76
2018-04-12T04:11:57.923Z,10.74
2018-04-12T04:12:57.927Z,10.78
2018-04-12T04:13:57.932Z,10.77
2018-04-12T04:14:57.934Z,10.74
2018-04-12T04:15:57.933Z,10.77
2018-04-12T04:16:57.939Z,10.77
2018-04-12T04:17:57.939Z,10.76
2018-04-12T04:18:57.943Z,10.74
2018-04-12T04:19:57.940Z,10.81
2018-04-12T04:20:57.953Z,10.81
2018-04-12T04:21:57.949Z,10.88
2018-04-12T04:22:57.959Z,10.96
2018-04-12T04:23:57.955Z,10.99
2018-04-12T04:24:57.961Z,11.02
2018-04-12T04:25:57.962Z,11.10
2018-04-12T04:26:57.960Z,11.06
2018-04-12T04:27:57.980Z,11.09
2018-04-12T04:28:57.965Z,11.13
2018-04-12T04:29:57.976Z,11.17
2018-04-12T04:30:57.973Z,11.16
2018-04-12T04:31:57.970Z,11.17
2018-04-12T04:32:57.981Z,11.19
2018-04-12T04:33:57.976Z,11.21
2018-04-12T04:34:57.987Z,11.17
2018-04-12T04:35:57.982Z,11.24
2018-04-12T04:36:57.987Z,11.16
2018-04-12T04:37:57.988Z,11.20
2018-04-12T04:38:57.991Z,11.19
2018-04-12T04:39:58.000Z,11.25
2018-04-12T04:40:58.003Z,11.24
2018-04-12T04:41:58.000Z,11.11
2018-04-12T04:42:58.004Z,11.16
2018-04-12T04:43:58.005Z,11.21
2018-04-12T04:44:58.006Z,11.14
2018-04-12T04:45:58.009Z,11.13
2018-04-12T04:46:58.012Z,11.32
2018-04-12T04:47:58.010Z,11.25
2018-04-12T04:48:58.022Z,11.25
2018-04-12T04:49:58.028Z,11.32
2018-04-12T04:50:58.033Z,11.34
2018-04-12T04:51:58.029Z,11.21
2018-04-12T04:52:58.057Z,11.29
2018-04-12T04:53:58.028Z,11.28
2018-04-12T04:54:58.062Z,11.28
2018-04-12T04:55:58.060Z,11.25
2018-04-12T04:56:58.748Z,11.27
2018-04-12T04:57:58.037Z,11.28
2018-04-12T04:58:58.043Z,11.28
2018-04-12T04:59:58.040Z,11.31
2018-04-12T05:00:58.052Z,11.39
2018-04-12T05:01:58.065Z,11.36
2018-04-12T05:02:58.058Z,11.39
2018-04-12T05:03:58.057Z,11.43
2018-04-12T05:04:58.053Z,11.43
2018-04-12T05:05:58.067Z,11.43
2018-04-12T05:06:58.058Z,11.43
2018-04-12T05:07:58.105Z,11.36
2018-04-12T05:08:58.066Z,11.36
2018-04-12T05:09:58.090Z,11.41
2018-04-12T05:10:58.073Z,11.50
2018-04-12T05:11:58.071Z,11.56
2018-04-12T05:12:58.081Z,11.54
2018-04-12T05:13:58.092Z,11.54
2018-04-12T05:14:58.093Z,11.57
2018-04-12T05:15:58.155Z,11.59
2018-04-12T05:16:58.103Z,11.64
2018-04-12T05:17:58.090Z,11.59
2018-04-12T05:18:58.098Z,11.59
2018-04-12T05:19:58.091Z,11.61
2018-04-12T05:20:58.134Z,11.61
2018-04-12T05:21:58.097Z,11.70
2018-04-12T05:22:58.107Z,11.75
2018-04-12T05:23:58.104Z,11.67
2018-04-12T05:24:58.109Z,11.75
2018-04-12T05:25:58.111Z,11.68
2018-04-12T05:26:58.115Z,11.78
2018-04-12T05:27:58.119Z,11.77
2018-04-12T05:28:58.114Z,11.78
2018-04-12T05:29:58.134Z,11.71
2018-04-12T05:30:58.124Z,11.74
2018-04-12T05:31:58.129Z,11.82
2018-04-12T05:32:58.130Z,11.77
2018-04-12T05:33:58.198Z,11.89
2018-04-12T05:34:58.147Z,11.89
2018-04-12T05:35:58.140Z,11.86
2018-04-12T05:36:58.155Z,11.86
2018-04-12T05:37:58.147Z,11.94
2018-04-12T05:38:58.165Z,11.94
2018-04-12T05:39:58.184Z,11.93
2018-04-12T05:40:58.201Z,12.02
2018-04-12T05:41:58.156Z,12.04
2018-04-12T05:42:58.161Z,12.04
2018-04-12T05:43:58.155Z,12.12
2018-04-12T05:44:58.161Z,12.12
2018-04-12T05:45:58.166Z,12.08
2018-04-12T05:46:58.165Z,12.09
2018-04-12T05:47:58.174Z,12.19
2018-04-12T05:48:58.168Z,12.21
2018-04-12T05:49:58.173Z,12.08
2018-04-12T05:50:58.178Z,12.04
2018-04-12T05:51:58.178Z,12.12
2018-04-12T05:52:58.190Z,11.97
2018-04-12T05:53:58.181Z,12.11
2018-04-12T05:54:58.190Z,12.06
2018-04-12T05:55:58.193Z,12.11
2018-04-12T05:56:58.197Z,12.12
2018-04-12T05:57:58.195Z,12.05
2018-04-12T05:58:58.218Z,12.13
2018-04-12T05:59:58.203Z,12.13
2018-04-12T06:00:58.210Z,12.13
2018-04-12T06:01:58.216Z,12.19
2018-04-12T06:02:58.214Z,12.20
2018-04-12T06:03:58.213Z,12.20
2018-04-12T06:04:58.220Z,12.26
2018-04-12T06:05:58.219Z,12.21
2018-04-12T06:06:58.224Z,12.21
2018-04-12T06:07:58.221Z,12.23
2018-04-12T06:08:58.227Z,12.23
2018-04-12T06:09:58.227Z,12.37
2018-04-12T06:10:58.233Z,12.38
2018-04-12T06:11:58.229Z,12.33
2018-04-12T06:12:58.241Z,12.37
2018-04-12T06:13:58.236Z,12.42
2018-04-12T06:14:58.247Z,12.39
2018-04-12T06:15:58.248Z,12.44
2018-04-12T06:16:58.257Z,12.46
2018-04-12T06:17:58.248Z,12.44
2018-04-12T06:18:58.261Z,12.45
2018-04-12T06:19:58.262Z,12.46
2018-04-12T06:20:58.266Z,12.46
2018-04-12T06:21:58.262Z,12.42
2018-04-12T06:22:58.298Z,12.44
2018-04-12T06:23:58.273Z,12.49
2018-04-12T06:24:58.274Z,12.59
2018-04-12T06:25:58.286Z,12.59
2018-04-12T06:26:58.284Z,12.54
2018-04-12T06:27:58.288Z,12.59
2018-04-12T06:28:58.282Z,12.62
2018-04-12T06:29:58.285Z,12.46
2018-04-12T06:30:58.297Z,12.46
2018-04-12T06:31:58.291Z,12.39
2018-04-12T06:32:58.292Z,12.41
2018-04-12T06:33:58.302Z,12.44
2018-04-12T06:34:58.301Z,12.39
2018-04-12T06:35:58.307Z,12.49
2018-04-12T06:36:58.305Z,12.48
2018-04-12T06:37:58.305Z,12.42
2018-04-12T06:38:58.310Z,12.51
2018-04-12T06:39:58.318Z,12.45
2018-04-12T06:40:58.316Z,12.39
2018-04-12T06:41:58.323Z,12.34
2018-04-12T06:42:58.330Z,12.37
2018-04-12T06:43:58.327Z,12.34
2018-04-12T06:44:58.328Z,12.29
2018-04-12T06:45:58.329Z,12.24
2018-04-12T06:46:58.343Z,12.37
2018-04-12T06:47:58.335Z,12.39
2018-04-12T06:48:58.338Z,12.37
2018-04-12T06:49:58.344Z,12.38
2018-04-12T06:50:58.354Z,12.37
2018-04-12T06:51:58.367Z,12.31
2018-04-12T06:52:58.346Z,12.37
2018-04-12T06:53:58.353Z,12.26
2018-04-12T06:54:58.356Z,12.21
2018-04-12T06:55:58.359Z,12.23
2018-04-12T06:56:58.369Z,12.13
2018-04-12T06:57:58.362Z,12.16
2018-04-12T06:58:58.371Z,12.27
2018-04-12T06:59:58.368Z,12.20
2018-04-12T07:00:58.376Z,12.21
2018-04-12T07:01:58.374Z,12.34
2018-04-12T07:02:58.399Z,12.30
2018-04-12T07:03:58.385Z,12.37
2018-04-12T07:04:58.386Z,12.27
2018-04-12T07:05:59.322Z,12.24
2018-04-12T07:06:58.392Z,12.24
2018-04-12T07:07:58.387Z,12.27
2018-04-12T07:08:58.394Z,12.26
2018-04-12T07:09:58.395Z,12.33
2018-04-12T07:10:58.406Z,12.41
2018-04-12T07:11:58.404Z,12.42
2018-04-12T07:12:58.408Z,12.37
2018-04-12T07:13:58.412Z,12.37
2018-04-12T07:14:58.567Z,12.26
2018-04-12T07:15:58.413Z,12.29
2018-04-12T07:16:58.425Z,12.26
2018-04-12T07:17:58.417Z,12.29
2018-04-12T07:18:58.441Z,12.33
2018-04-12T07:19:58.612Z,12.31
2018-04-12T07:20:58.469Z,12.39
2018-04-12T07:21:58.430Z,12.33
2018-04-12T07:22:58.434Z,12.46
2018-04-12T07:23:58.439Z,12.45
2018-04-12T07:24:58.442Z,12.51
2018-04-12T07:25:58.450Z,12.54
2018-04-12T07:26:58.445Z,12.57
2018-04-12T07:27:58.502Z,12.57
2018-04-12T07:28:58.457Z,12.70
2018-04-12T07:29:58.463Z,12.70
2018-04-12T07:30:58.457Z,12.87
2018-04-12T07:31:58.464Z,12.89
2018-04-12T07:32:58.487Z,12.95
2018-04-12T07:33:58.465Z,13.20
2018-04-12T07:34:58.470Z,13.33
2018-04-12T07:35:58.477Z,13.51
2018-04-12T07:36:58.482Z,13.58
2018-04-12T07:37:58.481Z,13.62
2018-04-12T07:38:58.485Z,13.56
2018-04-12T07:39:58.485Z,13.56
2018-04-12T07:40:58.498Z,13.55
2018-04-12T07:41:58.508Z,13.44
2018-04-12T07:42:58.504Z,13.55
2018-04-12T07:43:58.510Z,13.47
2018-04-12T07:44:58.577Z,13.38
2018-04-12T07:45:58.506Z,13.54
2018-04-12T07:46:58.512Z,13.59
2018-04-12T07:47:58.514Z,13.56
2018-04-12T07:48:58.526Z,13.69
2018-04-12T07:49:58.521Z,13.73
2018-04-12T07:50:58.526Z,13.67
2018-04-12T07:51:58.531Z,13.74
2018-04-12T07:52:58.537Z,13.76
2018-04-12T07:53:58.531Z,13.65
2018-04-12T07:54:58.544Z,13.63
2018-04-12T07:55:58.543Z,13.55
2018-04-12T07:56:58.602Z,13.54
2018-04-12T07:57:58.590Z,13.58
2018-04-12T07:58:58.556Z,13.67
2018-04-12T07:59:58.675Z,13.69
2018-04-12T08:00:58.697Z,13.59
2018-04-12T08:01:59.441Z,13.49
2018-04-12T08:02:58.585Z,13.62
2018-04-12T08:03:58.578Z,13.55
2018-04-12T08:04:58.753Z,13.54
2018-04-12T08:05:58.779Z,13.56
2018-04-12T08:06:58.768Z,13.43
2018-04-12T08:07:58.737Z,13.44
2018-04-12T08:08:58.599Z,13.44
2018-04-12T08:09:58.600Z,13.46
2018-04-12T08:10:58.731Z,13.46
2018-04-12T08:11:58.603Z,13.46
2018-04-12T08:12:58.640Z,13.44
2018-04-12T08:13:58.616Z,13.59
2018-04-12T08:14:58.622Z,13.70
2018-04-12T08:15:58.624Z,13.74
2018-04-12T08:16:58.621Z,13.98
2018-04-12T08:17:58.632Z,13.89
2018-04-12T08:18:58.631Z,13.88
2018-04-12T08:19:58.639Z,13.98
2018-04-12T08:20:58.636Z,14.14
2018-04-12T08:21:58.644Z,14.27
2018-04-12T08:22:58.644Z,14.27
2018-04-12T08:23:58.693Z,14.20
2018-04-12T08:24:58.652Z,14.10
2018-04-12T08:25:58.654Z,14.12
2018-04-12T08:26:58.660Z,14.13
2018-04-12T08:27:58.664Z,14.20
2018-04-12T08:28:58.670Z,14.46
2018-04-12T08:29:58.678Z,14.44
2018-04-12T08:30:58.674Z,14.64
2018-04-12T08:31:58.686Z,14.71
2018-04-12T08:32:58.700Z,14.72
2018-04-12T08:33:58.695Z,14.91
2018-04-12T08:34:58.702Z,14.75
2018-04-12T08:35:58.706Z,14.93
2018-04-12T08:36:58.699Z,14.78
2018-04-12T08:37:58.708Z,14.72
2018-04-12T08:38:58.717Z,14.69
2018-04-12T08:39:58.724Z,14.74
2018-04-12T08:40:58.727Z,14.80
2018-04-12T08:41:58.726Z,14.71
2018-04-12T08:42:58.727Z,14.72
2018-04-12T08:43:58.736Z,14.57
2018-04-12T08:44:58.750Z,14.44
2018-04-12T08:45:58.769Z,14.34
2018-04-12T08:46:58.755Z,14.28
2018-04-12T08:47:58.760Z,14.17
2018-04-12T08:48:58.781Z,14.12
2018-04-12T08:49:58.785Z,14.10
2018-04-12T08:50:58.818Z,14.12
2018-04-12T08:51:58.852Z,13.95
2018-04-12T08:52:58.792Z,13.80
2018-04-12T08:53:58.797Z,13.88
2018-04-12T08:54:58.808Z,13.98
2018-04-12T08:55:58.812Z,14.04
2018-04-12T08:56:58.853Z,13.83
2018-04-12T08:57:58.797Z,13.98
2018-04-12T08:58:58.799Z,14.10
2018-04-12T08:59:58.805Z,14.19
2018-04-12T09:00:58.811Z,14.21
2018-04-12T09:01:58.834Z,14.31
2018-04-12T09:02:58.820Z,14.35
2018-04-12T09:03:58.828Z,14.29
2018-04-12T09:04:58.823Z,14.31
2018-04-12T09:05:58.834Z,14.39
2018-04-12T09:06:58.837Z,14.52
2018-04-12T09:07:58.839Z,14.65
2018-04-12T09:08:58.889Z,14.64
2018-04-12T09:09:58.844Z,14.74
2018-04-12T09:10:58.855Z,14.46
2018-04-12T09:11:58.861Z,14.52
2018-04-12T09:12:58.860Z,14.72
2018-04-12T09:13:58.867Z,14.84
2018-04-12T09:14:58.872Z,14.83
2018-04-12T09:15:58.878Z,14.95
2018-04-12T09:16:58.874Z,14.90
2018-04-12T09:17:58.938Z,14.84
2018-04-12T09:18:58.887Z,14.90
2018-04-12T09:19:58.895Z,14.88
2018-04-12T09:20:58.901Z,15.11
2018-04-12T09:21:58.896Z,15.12
2018-04-12T09:22:58.909Z,15.48
2018-04-12T09:23:58.915Z,15.85
2018-04-12T09:24:58.917Z,15.76
2018-04-12T09:25:58.919Z,15.79
2018-04-12T09:26:58.928Z,15.94
2018-04-12T09:27:58.931Z,16.48
2018-04-12T09:28:58.937Z,16.59
2018-04-12T09:29:58.979Z,17.07
2018-04-12T09:30:58.942Z,17.36
2018-04-12T09:31:58.951Z,17.48
2018-04-12T09:32:58.951Z,17.55
2018-04-12T09:33:58.958Z,17.28
2018-04-12T09:34:58.968Z,17.17
2018-04-12T09:35:58.970Z,17.29
2018-04-12T09:36:58.978Z,17.08
2018-04-12T09:37:59.041Z,17.28
2018-04-12T09:38:58.992Z,17.38
2018-04-12T09:39:58.997Z,17.36
2018-04-12T09:40:59.012Z,17.40
2018-04-12T09:41:59.008Z,17.50
2018-04-12T09:42:59.022Z,17.23
2018-04-12T09:43:59.027Z,16.95
2018-04-12T09:44:59.039Z,16.68
2018-04-12T09:45:59.040Z,16.58
2018-04-12T09:46:59.080Z,16.70
2018-04-12T09:47:59.098Z,16.70
2018-04-12T09:48:59.093Z,16.62
2018-04-12T09:49:59.071Z,16.78
2018-04-12T09:50:59.081Z,16.73
2018-04-12T09:51:59.084Z,16.53
2018-04-12T09:52:59.127Z,16.27
2018-04-12T09:53:59.100Z,16.14
2018-04-12T09:54:59.143Z,16.30
2018-04-12T09:55:59.129Z,16.40
2018-04-12T09:56:59.154Z,16.58
2018-04-12T09:57:59.152Z,16.67
2018-04-12T09:58:59.166Z,16.65
2018-04-12T09:59:59.224Z,16.62
2018-04-12T10:00:59.184Z,16.80
2018-04-12T10:01:59.187Z,16.88
2018-04-12T10:02:59.193Z,17.00
2018-04-12T10:03:59.199Z,17.11
2018-04-12T10:04:59.214Z,17.17
2018-04-12T10:05:59.228Z,17.07
2018-04-12T10:06:59.218Z,17.11
2018-04-12T10:07:59.211Z,16.99
2018-04-12T10:08:59.283Z,17.17
2018-04-12T10:09:59.241Z,17.29
2018-04-12T10:10:59.251Z,17.48
2018-04-12T10:11:59.249Z,17.50
2018-04-12T10:12:59.261Z,17.38
2018-04-12T10:13:59.264Z,17.48
2018-04-12T10:14:59.282Z,17.64
2018-04-12T10:15:59.337Z,17.92
2018-04-12T10:16:59.445Z,18.03
2018-04-12T10:17:59.303Z,18.13
2018-04-12T10:18:59.332Z,18.06
2018-04-12T10:19:59.321Z,17.82
2018-04-12T10:20:59.326Z,17.53
2018-04-12T10:21:59.329Z,17.46
2018-04-12T10:22:59.339Z,17.53
2018-04-12T10:23:59.346Z,17.48
2018-04-12T10:24:59.359Z,17.44
2018-04-12T10:25:59.367Z,17.26
2018-04-12T10:26:59.371Z,17.32
2018-04-12T10:27:59.385Z,17.48
2018-04-12T10:28:59.432Z,17.57
2018-04-12T10:29:59.403Z,17.74
2018-04-12T10:30:59.409Z,17.88
2018-04-12T10:31:59.476Z,17.84
2018-04-12T10:32:59.442Z,17.81
2018-04-12T10:33:59.442Z,17.91
2018-04-12T10:34:59.445Z,18.19
2018-04-12T10:35:59.456Z,18.39
2018-04-12T10:36:59.459Z,18.36
2018-04-12T10:37:59.463Z,18.55
2018-04-12T10:38:59.479Z,18.47
2018-04-12T10:39:59.484Z,18.52
2018-04-12T10:40:59.508Z,18.70
2018-04-12T10:41:59.503Z,19.05
2018-04-12T10:42:59.517Z,18.99
2018-04-12T10:43:59.521Z,19.14
2018-04-12T10:44:59.541Z,19.01
2018-04-12T10:45:59.543Z,19.06
2018-04-12T10:46:59.563Z,19.01
2018-04-12T10:47:59.572Z,19.06
2018-04-12T10:48:59.612Z,18.98
2018-04-12T10:49:59.588Z,19.18
2018-04-12T10:50:59.614Z,18.91
2018-04-12T10:51:59.664Z,18.94
2018-04-12T10:52:59.631Z,18.76
2018-04-12T10:53:59.649Z,18.62
2018-04-12T10:54:59.656Z,18.94
2018-04-12T10:55:59.661Z,18.98
2018-04-12T10:56:59.669Z,19.06
2018-04-12T10:57:59.688Z,19.20
2018-04-12T10:58:59.693Z,19.18
2018-04-12T10:59:59.713Z,19.36
2018-04-12T11:00:59.719Z,19.20
2018-04-12T11:01:59.736Z,19.13
2018-04-12T11:02:59.738Z,19.25
2018-04-12T11:03:59.754Z,19.58
2018-04-12T11:04:59.791Z,19.53
2018-04-12T11:05:59.818Z,19.51
2018-04-12T11:06:59.794Z,19.21
2018-04-12T11:07:59.801Z,19.18
2018-04-12T11:08:59.822Z,19.14
2018-04-12T11:09:59.827Z,18.90
2018-04-12T11:10:59.847Z,18.73
2018-04-12T11:11:59.859Z,18.72
2018-04-12T11:12:59.877Z,18.83
2018-04-12T11:13:59.897Z,18.70
2018-04-12T11:14:59.887Z,18.72
2018-04-12T11:15:59.904Z,18.98
2018-04-12T11:16:59.915Z,18.86
2018-04-12T11:17:59.921Z,18.59
2018-04-12T11:18:59.942Z,18.54
2018-04-12T11:19:59.958Z,18.61
2018-04-12T11:20:59.995Z,18.47
2018-04-12T11:21:59.970Z,18.46
2018-04-12T11:22:59.980Z,18.57
2018-04-12T11:23:59.992Z,18.47
2018-04-12T11:25:00.010Z,18.52
2018-04-12T11:26:00.035Z,18.44
2018-04-12T11:27:00.028Z,18.82
2018-04-12T11:28:00.036Z,18.76
2018-04-12T11:29:00.051Z,18.84
2018-04-12T11:30:00.095Z,18.99
2018-04-12T11:31:00.066Z,19.20
2018-04-12T11:32:00.105Z,19.53
2018-04-12T11:33:00.084Z,19.66
2018-04-12T11:34:01.406Z,19.63
2018-04-12T11:35:00.122Z,19.73
2018-04-12T11:36:00.121Z,19.69
2018-04-12T11:37:00.190Z,19.51
2018-04-12T11:38:00.144Z,19.20
2018-04-12T11:39:00.148Z,19.13
2018-04-12T11:40:00.161Z,19.08
2018-04-12T11:41:00.173Z,19.06
2018-04-12T11:42:00.250Z,19.02
2018-04-12T11:43:00.195Z,18.87
2018-04-12T11:44:00.208Z,18.82
2018-04-12T11:45:00.212Z,18.57
2018-04-12T11:46:00.221Z,18.43
2018-04-12T11:47:00.233Z,18.50
2018-04-12T11:48:00.243Z,18.36
2018-04-12T11:49:00.279Z,18.34
2018-04-12T11:50:00.281Z,18.43
2018-04-12T11:51:00.279Z,18.55
2018-04-12T11:52:00.281Z,18.52
2018-04-12T11:53:00.291Z,18.65
2018-04-12T11:54:00.303Z,18.55
2018-04-12T11:55:00.341Z,18.57
2018-04-12T11:56:00.337Z,18.58
2018-04-12T11:57:00.332Z,18.73
2018-04-12T11:58:01.547Z,18.84
2018-04-12T11:59:00.351Z,18.79
2018-04-12T12:00:00.361Z,18.95
2018-04-12T12:01:00.367Z,18.99
2018-04-12T12:02:00.380Z,19.11
2018-04-12T12:03:00.385Z,19.23
2018-04-12T12:04:00.400Z,19.13
2018-04-12T12:05:00.404Z,19.08
2018-04-12T12:06:00.418Z,18.91
2018-04-12T12:07:00.452Z,18.76
2018-04-12T12:08:00.429Z,18.65
2018-04-12T12:09:00.440Z,18.59
2018-04-12T12:10:00.452Z,18.57
2018-04-12T12:11:00.453Z,18.80
2018-04-12T12:12:00.461Z,18.80
2018-04-12T12:13:00.478Z,18.76
2018-04-12T12:14:00.483Z,18.86
2018-04-12T12:15:00.492Z,19.01
2018-04-12T12:16:00.497Z,18.94
2018-04-12T12:17:00.523Z,18.97
2018-04-12T12:18:00.524Z,18.90
2018-04-12T12:19:00.520Z,18.52
2018-04-12T12:20:00.535Z,18.52
2018-04-12T12:21:00.547Z,18.44
2018-04-12T12:22:00.551Z,18.33
2018-04-12T12:23:00.571Z,18.12
2018-04-12T12:24:00.565Z,18.19
2018-04-12T12:25:00.583Z,18.07
2018-04-12T12:26:00.589Z,18.10
2018-04-12T12:27:00.591Z,18.27
2018-04-12T12:28:00.603Z,18.28
2018-04-12T12:29:00.610Z,18.19
2018-04-12T12:30:00.613Z,18.13
2018-04-12T12:31:00.627Z,18.15
2018-04-12T12:32:00.636Z,18.03
2018-04-12T12:33:00.637Z,17.91
2018-04-12T12:34:00.662Z,18.04
2018-04-12T12:35:00.660Z,18.09
2018-04-12T12:36:00.661Z,18.25
2018-04-12T12:37:00.671Z,18.34
2018-04-12T12:38:00.679Z,18.28
2018-04-12T12:39:00.681Z,18.24
2018-04-12T12:40:00.706Z,18.04
2018-04-12T12:41:00.701Z,18.02
2018-04-12T12:42:00.706Z,17.99
2018-04-12T12:43:00.708Z,18.00
2018-04-12T12:44:00.719Z,17.94
2018-04-12T12:45:00.728Z,17.79
2018-04-12T12:46:00.732Z,17.84
2018-04-12T12:47:00.750Z,17.95
2018-04-12T12:48:00.747Z,17.95
2018-04-12T12:49:00.758Z,18.06
2018-04-12T12:50:00.827Z,18.03
2018-04-12T12:51:00.814Z,18.07
2018-04-12T12:52:00.775Z,17.94
2018-04-12T12:53:00.789Z,17.89